Time;durP1;ratioP1;P1;durP2;ratioP2;P2;SDS_P1;SDS_P2;PMS_P1;PMS_P2;Temp;Humidity;BMP_temperature;BMP_pressure;BME280_temperature;BME280_humidity;BME280_pressure;Samples;Min_cycle;Max_cycle;Signal;HPM_P1;HPM_P2
2021/08/11 00:01:27;;;;;;;6.03;3.92;;;;;;;20.77;96.68;97996.72;5011566;28;20053;-74
2021/08/11 00:03:53;;;;;;;4.95;4.07;;;;;;;20.78;96.74;98006.69;5009910;28;20506;-74
2021/08/11 00:06:19;;;;;;;6.63;4.95;;;;;;;20.66;96.91;98009.56;5011310;28;20109;-74
2021/08/11 00:08:45;;;;;;;6.35;4.70;;;;;;;20.76;96.60;98018.19;5009972;28;20506;-75
2021/08/11 00:11:10;;;;;;;7.32;4.32;;;;;;;20.61;96.62;97990.41;5009847;28;20037;-75
2021/08/11 00:13:36;;;;;;;7.70;4.70;;;;;;;20.86;95.27;98014.06;5009787;28;20087;-74
2021/08/11 00:16:02;;;;;;;5.60;4.03;;;;;;;20.75;96.50;98008.22;5009871;28;20057;-73
2021/08/11 00:18:28;;;;;;;7.20;4.05;;;;;;;21.02;94.67;98020.38;5010857;28;20144;-75
2021/08/11 00:20:54;;;;;;;9.25;4.05;;;;;;;20.86;95.50;98010.47;5010185;28;20014;-75
2021/08/11 00:23:19;;;;;;;5.60;4.25;;;;;;;20.65;96.78;98005.16;5010949;28;20025;-74
2021/08/11 00:25:45;;;;;;;9.70;4.82;;;;;;;20.67;96.81;98005.63;5009662;28;20028;-75
2021/08/11 00:28:10;;;;;;;5.93;4.55;;;;;;;20.61;97.49;98010.63;5009790;28;20025;-75
2021/08/11 00:30:36;;;;;;;7.05;4.50;;;;;;;20.57;98.14;98020.88;5010907;28;20037;-79
2021/08/11 00:33:01;;;;;;;7.38;4.78;;;;;;;20.47;98.93;98018.63;5011016;28;20077;-74
2021/08/11 00:35:27;;;;;;;7.13;5.45;;;;;;;20.48;99.51;98011.09;5011691;28;20394;-74
2021/08/11 00:37:52;;;;;;;8.18;5.13;;;;;;;20.37;100.00;98013.59;5009023;28;20040;-73
2021/08/11 00:40:22;;;;;;;6.50;4.65;;;;;;;20.46;99.63;98010.63;5011101;28;20037;-75
2021/08/11 00:42:47;;;;;;;5.30;4.68;;;;;;;20.54;99.49;98015.22;5011152;28;20060;-74
2021/08/11 00:45:14;;;;;;;8.13;4.85;;;;;;;20.48;99.39;98014.69;5009681;28;20031;-74
2021/08/11 00:47:39;;;;;;;6.57;4.65;;;;;;;20.58;98.85;98010.56;5010773;28;20014;-75
2021/08/11 00:50:06;;;;;;;9.88;5.35;;;;;;;20.49;99.76;98013.50;5011003;28;20026;-77
2021/08/11 00:52:33;;;;;;;8.18;5.10;;;;;;;20.67;98.53;98013.97;5010674;28;20059;-75
2021/08/11 00:54:58;;;;;;;5.65;4.53;;;;;;;;;;5013527;28;20025;-74
2021/08/11 00:57:26;;;;;;;7.50;4.85;;;;;;;20.42;100.00;98021.69;5013381;28;20036;-75
2021/08/11 00:59:52;;;;;;;11.30;5.40;;;;;;;20.36;100.00;98025.88;5013509;28;20037;-74
2021/08/11 01:02:19;;;;;;;8.77;4.53;;;;;;;20.51;99.73;98027.88;5014844;28;20029;-74
2021/08/11 01:04:47;;;;;;;7.78;5.10;;;;;;;20.50;99.70;98026.25;5013071;28;20500;-74
2021/08/11 01:07:14;;;;;;;7.10;5.03;;;;;;;20.68;98.08;98029.47;5014547;28;20021;-74
2021/08/11 01:09:40;;;;;;;10.60;5.57;;;;;;;20.62;97.75;98028.13;5014559;28;20022;-75
2021/08/11 01:12:06;;;;;;;7.57;4.97;;;;;;;20.75;97.28;98038.00;5013330;28;20176;-75
2021/08/11 01:14:33;;;;;;;8.25;5.03;;;;;;;20.69;97.74;98040.25;5014676;28;20029;-75
2021/08/11 01:17:00;;;;;;;6.60;5.05;;;;;;;20.56;98.56;98026.78;5017796;28;20845;-75
2021/08/11 01:19:26;;;;;;;5.88;4.85;;;;;;;20.39;99.98;98024.38;5017558;28;20034;-74
2021/08/11 01:22:01;;;;;;;6.82;5.20;;;;;;;20.29;100.00;98025.72;5015449;28;20085;-74
2021/08/11 01:24:29;;;;;;;5.45;4.72;;;;;;;20.28;100.00;98021.31;5013711;28;20112;-73
2021/08/11 01:27:28;;;;;;;6.00;4.82;;;;;;;20.28;100.00;98027.69;5014431;28;20057;-75
2021/08/11 01:29:59;;;;;;;6.82;5.18;;;;;;;20.15;100.00;98036.41;5007241;28;20054;-74
2021/08/11 01:32:56;;;;;;;8.80;6.03;;;;;;;20.02;100.00;98034.84;5012343;28;20052;-74
2021/08/11 01:35:28;;;;;;;8.40;5.22;;;;;;;20.04;100.00;98035.31;5013713;28;20057;-74
2021/08/11 01:37:55;;;;;;;6.60;5.82;;;;;;;20.10;100.00;98033.91;5013734;28;20060;-74
2021/08/11 01:40:30;;;;;;;6.63;5.32;;;;;;;20.08;100.00;98031.47;5013647;28;20527;-74
2021/08/11 01:42:59;;;;;;;11.23;4.25;;;;;;;20.17;100.00;98040.44;5013695;28;20180;-75
2021/08/11 01:45:40;;;;;;;7.10;4.13;;;;;;;20.11;100.00;98036.31;5012679;28;20072;-74
2021/08/11 01:48:13;;;;;;;7.38;5.22;;;;;;;20.10;100.00;98039.44;5012690;28;20072;-74
2021/08/11 01:50:40;;;;;;;10.10;5.35;;;;;;;20.00;100.00;98035.22;5013770;28;20080;-74
2021/08/11 01:53:10;;;;;;;6.70;4.50;;;;;;;20.08;100.00;98039.00;5013651;28;20041;-76
2021/08/11 01:55:35;;;;;;;6.28;4.80;;;;;;;19.98;100.00;98032.00;5012201;28;20064;-75
2021/08/11 01:58:02;;;;;;;4.95;4.40;;;;;;;20.11;100.00;98041.84;5013574;28;20057;-76
2021/08/11 02:00:27;;;;;;;7.22;5.50;;;;;;;20.08;100.00;98052.91;5013679;28;20387;-76
2021/08/11 02:02:54;;;;;;;7.03;4.78;;;;;;;20.08;100.00;98047.34;5013631;28;20017;-75
2021/08/11 02:05:23;;;;;;;7.95;5.38;;;;;;;19.88;100.00;98043.59;5012266;28;20037;-74
2021/08/11 02:07:49;;;;;;;7.47;5.47;;;;;;;19.76;100.00;98036.16;5013145;28;20025;-74
2021/08/11 02:10:16;;;;;;;9.15;5.28;;;;;;;19.71;100.00;98035.56;5011782;28;20033;-74
2021/08/11 02:12:42;;;;;;;8.35;6.95;;;;;;;19.67;100.00;98032.69;5012137;28;20029;-74
2021/08/11 02:15:09;;;;;;;7.72;5.45;;;;;;;19.84;100.00;98037.13;5013017;28;20403;-74
2021/08/11 02:17:39;;;;;;;8.38;4.50;;;;;;;19.87;100.00;98036.44;5012109;28;20029;-74
2021/08/11 02:20:06;;;;;;;11.27;5.60;;;;;;;19.84;100.00;98042.69;5011956;28;20038;-74
2021/08/11 02:22:31;;;;;;;5.38;4.50;;;;;;;19.69;100.00;98046.22;5013293;28;20069;-74
2021/08/11 02:24:57;;;;;;;7.75;5.10;;;;;;;19.48;100.00;98034.50;5013612;28;20061;-74
2021/08/11 02:27:29;;;;;;;7.25;4.70;;;;;;;19.40;100.00;98043.75;5011581;28;20030;-74
2021/08/11 02:30:04;;;;;;;6.40;5.32;;;;;;;19.57;100.00;98047.09;5011811;28;20033;-75
2021/08/11 02:32:33;;;;;;;8.90;5.55;;;;;;;19.51;100.00;98053.22;5012948;28;20061;-74
2021/08/11 02:34:58;;;;;;;7.88;4.80;;;;;;;19.60;100.00;98043.59;5011821;28;20032;-76
2021/08/11 02:37:31;;;;;;;7.47;4.90;;;;;;;19.45;100.00;98049.09;5012878;28;20438;-74
2021/08/11 02:40:05;;;;;;;7.22;5.60;;;;;;;19.36;100.00;98048.38;5011662;28;20041;-76
2021/08/11 02:42:55;;;;;;;5.65;4.30;;;;;;;19.45;100.00;98049.88;5011343;28;20444;-75
2021/08/11 02:45:22;;;;;;;6.55;5.32;;;;;;;19.48;100.00;98056.72;5010997;28;20034;-74
2021/08/11 02:47:49;;;;;;;8.68;5.18;;;;;;;19.44;100.00;98045.50;5011301;28;20018;-75
2021/08/11 02:50:16;;;;;;;7.55;4.88;;;;;;;19.55;100.00;98063.25;5012369;28;20033;-75
2021/08/11 02:52:44;;;;;;;9.32;5.40;;;;;;;19.39;100.00;98058.78;5012175;28;20474;-75
2021/08/11 02:55:10;;;;;;;7.72;5.22;;;;;;;19.25;100.00;98062.72;5012699;28;20129;-74
2021/08/11 02:57:36;;;;;;;7.13;5.18;;;;;;;19.37;100.00;98066.63;5012359;28;20034;-75
2021/08/11 03:00:02;;;;;;;7.50;5.63;;;;;;;19.32;100.00;98061.34;5012185;28;20395;-75
2021/08/11 03:02:28;;;;;;;10.43;5.13;;;;;;;19.37;100.00;98055.53;5011170;28;20034;-75
2021/08/11 03:04:54;;;;;;;8.00;7.07;;;;;;;19.45;100.00;98062.97;5012401;28;20076;-76
2021/08/11 03:07:20;;;;;;;7.13;5.45;;;;;;;19.35;100.00;98055.91;5012248;28;20025;-75
2021/08/11 03:09:46;;;;;;;6.40;5.05;;;;;;;19.44;100.00;98056.59;5012348;28;20360;-74
2021/08/11 03:12:12;;;;;;;6.05;5.10;;;;;;;19.59;100.00;98057.81;5012009;28;20118;-76
2021/08/11 03:14:43;;;;;;;10.40;5.10;;;;;;;19.69;100.00;98062.88;5012381;28;20040;-75
2021/08/11 03:17:10;;;;;;;6.65;4.63;;;;;;;19.67;100.00;98065.22;5011781;28;20026;-75
2021/08/11 03:19:40;;;;;;;8.32;5.82;;;;;;;19.60;100.00;98059.44;5010969;28;20386;-74
2021/08/11 03:22:07;;;;;;;7.40;5.00;;;;;;;19.38;100.00;98057.97;5010479;28;20021;-76
2021/08/11 03:24:33;;;;;;;6.40;5.47;;;;;;;19.26;100.00;98061.56;5010366;28;20084;-76
2021/08/11 03:26:58;;;;;;;5.82;5.25;;;;;;;19.12;100.00;98060.31;5011406;28;20538;-75
2021/08/11 03:29:24;;;;;;;11.25;5.45;;;;;;;19.17;100.00;98060.09;5011435;28;20030;-75
2021/08/11 03:31:49;;;;;;;7.90;6.20;;;;;;;19.13;100.00;98056.41;5009972;28;20120;-76
2021/08/11 03:34:15;;;;;;;7.47;4.43;;;;;;;19.07;100.00;98061.38;5010886;28;20458;-76
2021/08/11 03:36:40;;;;;;;6.10;4.35;;;;;;;19.00;100.00;98068.66;5014586;28;20040;-77
2021/08/11 03:39:06;;;;;;;11.38;5.50;;;;;;;19.06;100.00;98059.75;5011226;28;20395;-75
2021/08/11 03:41:31;;;;;;;8.23;5.57;;;;;;;19.31;100.00;98060.53;5010334;28;20144;-75
2021/08/11 03:43:57;;;;;;;8.90;4.97;;;;;;;19.37;100.00;98061.09;5011775;28;20030;-75
2021/08/11 03:46:22;;;;;;;9.63;5.13;;;;;;;19.32;100.00;98058.56;5010160;28;20022;-75
2021/08/11 03:48:47;;;;;;;7.03;5.45;;;;;;;19.32;100.00;98053.00;5010326;28;20549;-75
2021/08/11 03:51:13;;;;;;;7.95;5.20;;;;;;;19.57;99.78;98066.50;5011477;28;20025;-75
2021/08/11 03:53:39;;;;;;;13.75;4.25;;;;;;;19.62;98.74;98069.03;5010120;28;20167;-77
2021/08/11 03:56:06;;;;;;;10.77;5.80;;;;;;;19.68;98.23;98075.13;5010212;28;20479;-76
2021/08/11 03:58:31;;;;;;;11.70;6.22;;;;;;;19.62;98.51;98074.59;5009981;28;20069;-75
2021/08/11 04:00:57;;;;;;;9.40;5.80;;;;;;;19.43;100.00;98076.34;5011481;28;20450;-75
2021/08/11 04:03:22;;;;;;;8.15;4.80;;;;;;;19.35;100.00;98069.78;5009740;28;20109;-75
2021/08/11 04:05:48;;;;;;;9.85;5.20;;;;;;;19.29;100.00;98082.28;5011076;28;20463;-75
2021/08/11 04:08:14;;;;;;;12.20;5.63;;;;;;;19.39;100.00;98075.44;5011395;28;20034;-76
2021/08/11 04:10:44;;;;;;;7.18;4.65;;;;;;;19.52;100.00;98082.56;5011181;28;20229;-75
2021/08/11 04:13:09;;;;;;;11.63;4.97;;;;;;;19.65;99.43;98082.22;5011273;28;20030;-76
2021/08/11 04:15:35;;;;;;;10.23;5.85;;;;;;;19.74;98.95;98087.59;5009883;28;20096;-75
2021/08/11 04:18:00;;;;;;;5.25;4.72;;;;;;;19.42;100.00;98083.09;5010748;28;20533;-75
2021/08/11 04:20:26;;;;;;;11.38;5.10;;;;;;;19.18;100.00;98087.47;5009707;28;20042;-75
2021/08/11 04:22:51;;;;;;;8.27;4.60;;;;;;;19.22;100.00;98082.03;5008631;28;20032;-75
2021/08/11 04:25:16;;;;;;;8.07;5.20;;;;;;;19.23;100.00;98083.66;4998606;28;20026;-75
2021/08/11 04:27:42;;;;;;;5.85;4.40;;;;;;;19.30;100.00;98083.06;5010219;28;20505;-76
2021/08/11 04:30:08;;;;;;;10.25;5.35;;;;;;;19.37;100.00;98083.28;4997342;28;20069;-75
2021/08/11 04:32:35;;;;;;;7.20;5.25;;;;;;;19.32;100.00;98092.66;4991126;28;20030;-76
2021/08/11 04:35:03;;;;;;;11.18;5.15;;;;;;;19.48;100.00;98090.81;4989774;28;20034;-76
2021/08/11 04:37:28;;;;;;;6.82;5.43;;;;;;;19.57;100.00;98096.22;4990740;28;20031;-75
2021/08/11 04:39:54;;;;;;;6.00;4.68;;;;;;;19.84;99.38;98106.56;5006096;28;20032;-75
2021/08/11 04:42:21;;;;;;;7.55;4.60;;;;;;;20.02;98.04;98116.19;5001301;28;20461;-76
2021/08/11 04:44:47;;;;;;;6.10;5.00;;;;;;;20.24;96.20;98112.06;5010727;28;20026;-76
2021/08/11 04:47:12;;;;;;;8.15;5.55;;;;;;;20.34;95.37;98105.22;5009353;28;20030;-75
2021/08/11 04:49:38;;;;;;;7.15;5.05;;;;;;;20.57;93.70;98104.28;5009073;28;20010;-74
2021/08/11 04:52:03;;;;;;;9.05;5.00;;;;;;;20.55;93.09;98111.38;5010440;28;20049;-75
2021/08/11 04:54:29;;;;;;;7.93;5.40;;;;;;;20.59;93.52;98113.06;5009517;28;20056;-76
2021/08/11 04:56:54;;;;;;;8.05;4.80;;;;;;;20.69;92.38;98108.94;5010346;28;20026;-75
2021/08/11 04:59:19;;;;;;;6.32;5.07;;;;;;;20.66;91.55;98112.44;5010144;28;20038;-75
2021/08/11 05:01:45;;;;;;;6.15;5.22;;;;;;;20.56;92.26;98118.53;5009104;28;20388;-75
2021/08/11 05:04:10;;;;;;;11.10;5.57;;;;;;;20.67;91.85;98122.41;5009272;28;20117;-75
2021/08/11 05:06:36;;;;;;;11.95;5.72;;;;;;;20.87;89.95;98112.16;5010550;28;20049;-76
2021/08/11 05:09:01;;;;;;;6.40;5.32;;;;;;;20.87;90.10;98121.31;5009192;28;20113;-79
2021/08/11 05:11:26;;;;;;;7.32;4.88;;;;;;;20.71;91.10;98124.09;5010463;28;20451;-77
2021/08/11 05:13:52;;;;;;;10.10;5.20;;;;;;;20.48;92.79;98122.28;5008988;28;20018;-78
2021/08/11 05:16:17;;;;;;;7.70;5.05;;;;;;;20.43;93.29;98128.09;5009129;28;20396;-76
2021/08/11 05:18:43;;;;;;;11.55;5.82;;;;;;;20.25;93.60;98136.72;5001966;28;20040;-77
2021/08/11 05:21:08;;;;;;;12.15;5.65;;;;;;;20.30;92.98;98139.25;4993979;28;20026;-78
2021/08/11 05:23:34;;;;;;;7.80;4.93;;;;;;;20.40;92.04;98134.34;4990688;28;20037;-78
2021/08/11 05:25:59;;;;;;;9.38;5.80;;;;;;;20.58;90.99;98128.13;4991075;28;20031;-75
2021/08/11 05:28:24;;;;;;;9.20;5.53;;;;;;;20.82;89.02;98133.53;5005643;28;20133;-76
2021/08/11 05:30:50;;;;;;;7.85;5.18;;;;;;;21.04;87.85;98140.47;5005811;28;20030;-76
2021/08/11 05:33:15;;;;;;;10.43;5.43;;;;;;;20.96;87.98;98143.38;4995444;28;20026;-79
2021/08/11 05:35:41;;;;;;;9.48;5.72;;;;;;;20.68;89.07;98126.78;4990736;28;20027;-77
2021/08/11 05:38:06;;;;;;;6.50;5.63;;;;;;;20.69;89.49;98145.09;4990569;28;20038;-75
2021/08/11 05:40:32;;;;;;;10.05;6.13;;;;;;;20.81;88.87;98148.59;4993446;28;20034;-76
2021/08/11 05:42:57;;;;;;;7.40;5.07;;;;;;;20.94;88.09;98143.75;4994013;28;20054;-76
2021/08/11 05:45:23;;;;;;;9.65;5.07;;;;;;;21.08;87.19;98140.56;4994127;28;20076;-76
2021/08/11 05:47:49;;;;;;;6.90;5.38;;;;;;;20.99;87.09;98137.94;4994233;28;20023;-74
2021/08/11 05:50:14;;;;;;;7.22;5.40;;;;;;;21.18;86.06;98140.81;4994562;28;20034;-76
2021/08/11 05:52:40;;;;;;;10.02;4.95;;;;;;;21.27;85.43;98151.75;5008885;28;20022;-75
2021/08/11 05:55:06;;;;;;;9.45;5.53;;;;;;;21.66;83.21;98149.91;4994442;28;20038;-78
2021/08/11 05:57:31;;;;;;;7.47;5.25;;;;;;;21.79;81.65;98146.66;4993906;28;20458;-76
2021/08/11 05:59:57;;;;;;;10.90;5.57;;;;;;;22.14;80.29;98143.03;5016704;28;20130;-79
2021/08/11 06:02:22;;;;;;;7.40;4.80;;;;;;;22.07;79.57;98143.69;5012758;28;20504;-77
2021/08/11 06:04:48;;;;;;;10.45;5.50;;;;;;;22.05;79.13;98150.81;5012601;28;20111;-77
2021/08/11 06:07:14;;;;;;;8.07;5.57;;;;;;;22.22;78.91;98153.97;5012671;28;20030;-77
2021/08/11 06:09:40;;;;;;;9.25;5.57;;;;;;;22.34;77.44;98156.59;5013299;28;20029;-76
2021/08/11 06:12:06;;;;;;;12.88;5.22;;;;;;;22.57;76.93;98164.22;5013309;28;20026;-78
2021/08/11 06:14:31;;;;;;;11.65;5.55;;;;;;;22.22;77.39;98155.94;5012319;28;20141;-78
2021/08/11 06:16:56;;;;;;;6.75;5.20;;;;;;;22.52;76.48;98150.59;5013023;28;20052;-77
2021/08/11 06:19:22;;;;;;;8.63;5.50;;;;;;;22.61;76.48;98156.72;5012093;28;20478;-79
2021/08/11 06:21:47;;;;;;;10.23;5.53;;;;;;;22.61;75.19;98146.38;5013437;28;20116;-77
2021/08/11 06:24:13;;;;;;;31.35;19.85;;;;;;;22.72;74.72;98153.00;5013185;28;20081;-77
2021/08/11 06:26:39;;;;;;;28.48;14.50;;;;;;;22.75;74.86;98151.44;5013262;28;20030;-77
2021/08/11 06:29:04;;;;;;;19.05;8.32;;;;;;;22.79;74.26;98157.91;5013060;28;20077;-78
2021/08/11 06:31:30;;;;;;;13.52;7.63;;;;;;;23.18;72.30;98153.78;5013126;28;20508;-75
2021/08/11 06:33:56;;;;;;;9.70;7.03;;;;;;;23.41;70.89;98146.25;5011904;28;20029;-78
2021/08/11 06:36:22;;;;;;;9.38;6.20;;;;;;;23.94;68.11;98137.84;5011523;28;20080;-76
2021/08/11 06:38:48;;;;;;;9.68;7.15;;;;;;;23.93;68.68;98156.59;5012207;28;20025;-77
2021/08/11 06:41:17;;;;;;;11.18;6.40;;;;;;;23.91;68.12;98158.16;5010328;28;20038;-76
2021/08/11 06:43:44;;;;;;;10.82;6.18;;;;;;;24.12;68.51;98157.69;5012121;28;20398;-76
2021/08/11 06:46:10;;;;;;;11.50;5.88;;;;;;;24.22;66.99;98160.59;5011835;28;20387;-76
2021/08/11 06:48:39;;;;;;;6.93;5.40;;;;;;;24.23;67.32;98158.63;5006070;28;20041;-78
2021/08/11 06:51:15;;;;;;;9.65;6.03;;;;;;;24.30;66.13;98153.94;5013524;28;20105;-75
2021/08/11 06:53:40;;;;;;;9.60;6.00;;;;;;;24.25;67.00;98157.03;5008648;28;20498;-76
2021/08/11 06:56:08;;;;;;;10.98;5.90;;;;;;;23.88;67.85;98154.13;5011788;28;20040;-75
2021/08/11 06:58:35;;;;;;;14.35;5.70;;;;;;;23.99;67.93;98143.88;5009329;28;20120;-76
2021/08/11 07:01:01;;;;;;;7.18;4.93;;;;;;;24.44;66.19;98147.69;5011784;28;20034;-75
2021/08/11 07:03:26;;;;;;;9.75;5.35;;;;;;;24.64;65.01;98139.91;5010429;28;20543;-75
2021/08/11 07:05:52;;;;;;;7.65;5.55;;;;;;;24.72;64.99;98156.41;5011818;28;20105;-74
2021/08/11 07:08:19;;;;;;;12.30;6.15;;;;;;;25.10;64.36;98148.78;5012107;28;20021;-75
2021/08/11 07:10:48;;;;;;;13.63;7.28;;;;;;;25.43;62.91;98155.13;5012019;28;20529;-75
2021/08/11 07:13:14;;;;;;;11.20;6.50;;;;;;;25.08;63.01;98157.59;5009055;28;20208;-75
2021/08/11 07:15:40;;;;;;;10.82;6.25;;;;;;;24.99;63.10;98151.53;5010298;28;20029;-79
2021/08/11 07:18:06;;;;;;;9.13;5.70;;;;;;;25.14;63.12;98152.44;5011858;28;20026;-75
2021/08/11 07:20:32;;;;;;;10.73;6.82;;;;;;;25.56;61.63;98159.22;5011530;28;20468;-76
2021/08/11 07:22:58;;;;;;;10.65;6.13;;;;;;;25.49;61.68;98144.38;5011981;28;20482;-74
2021/08/11 07:25:25;;;;;;;9.40;5.10;;;;;;;25.73;61.73;98146.53;5011676;28;20045;-76
2021/08/11 07:27:51;;;;;;;8.65;5.00;;;;;;;25.58;61.44;98149.63;5010509;28;20080;-76
2021/08/11 07:30:17;;;;;;;13.65;7.20;;;;;;;25.85;60.63;98153.81;5010219;28;20100;-75
2021/08/11 07:32:43;;;;;;;9.52;4.88;;;;;;;25.83;60.45;98145.00;5009827;28;20364;-77
2021/08/11 07:35:12;;;;;;;5.88;5.05;;;;;;;25.70;60.46;98136.09;5009152;28;20029;-75
2021/08/11 07:37:55;;;;;;;10.07;5.00;;;;;;;25.91;60.36;98150.25;5012190;28;20059;-74
2021/08/11 07:40:23;;;;;;;12.40;5.68;;;;;;;26.06;58.99;98151.16;5009903;28;20040;-75
2021/08/11 07:42:52;;;;;;;11.27;5.03;;;;;;;26.22;58.51;98148.06;5008426;28;20044;-76
2021/08/11 07:45:21;;;;;;;10.70;4.97;;;;;;;26.44;58.15;98153.34;5010124;28;20041;-75
2021/08/11 07:47:51;;;;;;;9.77;4.85;;;;;;;27.15;55.99;98153.56;5007151;28;20030;-75
2021/08/11 07:50:18;;;;;;;10.77;5.18;;;;;;;27.01;56.85;98148.72;5008657;28;20033;-74
2021/08/11 07:52:44;;;;;;;10.90;4.50;;;;;;;27.36;56.33;98153.56;5008496;28;20038;-74
2021/08/11 07:55:13;;;;;;;9.30;5.05;;;;;;;27.75;54.17;98152.75;5009059;28;20124;-75
2021/08/11 07:57:38;;;;;;;13.20;5.30;;;;;;;28.21;53.18;98145.03;5008886;28;20014;-76
2021/08/11 08:00:06;;;;;;;11.27;4.93;;;;;;;28.01;53.95;98141.84;5005447;28;20586;-74
2021/08/11 08:02:32;;;;;;;7.15;4.65;;;;;;;28.11;53.19;98154.31;5008569;28;20026;-74
2021/08/11 08:04:57;;;;;;;9.82;4.63;;;;;;;28.46;52.29;98151.38;5008355;28;20006;-75
2021/08/11 08:07:26;;;;;;;9.48;4.45;;;;;;;29.15;50.94;98156.22;5007658;28;20034;-74
2021/08/11 08:09:52;;;;;;;14.18;5.03;;;;;;;30.67;47.47;98154.75;5006862;28;20029;-75
2021/08/11 08:12:17;;;;;;;8.77;4.53;;;;;;;31.65;45.07;98157.34;5008540;28;20033;-74
2021/08/11 08:14:43;;;;;;;7.38;4.63;;;;;;;32.58;42.78;98169.34;5007394;28;20518;-72
2021/08/11 08:17:08;;;;;;;11.10;5.22;;;;;;;33.44;40.77;98174.72;5008876;28;20018;-76
2021/08/11 08:19:33;;;;;;;10.82;4.95;;;;;;;32.77;42.06;98164.91;5008774;28;20156;-75
2021/08/11 08:21:59;;;;;;;11.52;4.78;;;;;;;32.82;42.24;98168.03;5008690;28;20490;-79
2021/08/11 08:24:24;;;;;;;8.27;4.13;;;;;;;33.88;40.15;98176.88;5004080;28;20025;-77
2021/08/11 08:26:50;;;;;;;14.50;4.47;;;;;;;34.02;38.92;98174.91;5007398;28;20036;-74
2021/08/11 08:29:15;;;;;;;5.10;3.78;;;;;;;34.29;38.81;98172.56;5008969;28;20022;-76
2021/08/11 08:31:42;;;;;;;7.47;5.18;;;;;;;33.33;39.95;98174.97;5007948;28;20426;-76
2021/08/11 08:34:07;;;;;;;8.30;3.78;;;;;;;33.03;41.19;98168.78;5008257;28;20148;-75
2021/08/11 08:36:33;;;;;;;5.65;4.22;;;;;;;33.34;40.47;98175.78;5008267;28;20025;-77
2021/08/11 08:38:58;;;;;;;6.00;3.75;;;;;;;33.91;39.11;98181.66;5008928;28;20386;-76
2021/08/11 08:41:24;;;;;;;7.28;4.00;;;;;;;34.17;38.81;98179.00;5008371;28;20477;-77
2021/08/11 08:43:49;;;;;;;8.68;4.07;;;;;;;33.67;40.05;98177.44;5007975;28;20045;-77
2021/08/11 08:46:16;;;;;;;6.57;4.82;;;;;;;32.86;41.28;98163.06;5004601;28;20025;-79
2021/08/11 08:48:42;;;;;;;8.50;4.35;;;;;;;34.14;39.44;98180.69;5005992;28;20022;-76
2021/08/11 08:51:13;;;;;;;7.32;4.85;;;;;;;35.75;36.26;98179.06;5008725;28;20030;-76
2021/08/11 08:53:44;;;;;;;8.95;3.50;;;;;;;35.89;35.81;98186.34;5006546;28;20018;-76
2021/08/11 08:56:09;;;;;;;6.72;3.50;;;;;;;36.17;35.02;98188.22;5009019;28;20537;-77
2021/08/11 08:58:37;;;;;;;5.38;3.78;;;;;;;35.56;35.72;98184.97;5008338;28;20049;-77
2021/08/11 09:01:02;;;;;;;10.23;4.53;;;;;;;33.56;39.51;98182.53;5005754;28;20053;-76
2021/08/11 09:03:28;;;;;;;9.98;3.88;;;;;;;33.29;39.98;98179.16;5006643;28;20017;-79
2021/08/11 09:05:53;;;;;;;7.97;4.05;;;;;;;33.67;39.63;98177.44;5008311;28;20485;-78
2021/08/11 09:08:19;;;;;;;6.72;4.07;;;;;;;33.38;39.98;98177.31;5006972;28;20026;-78
2021/08/11 09:10:44;;;;;;;10.15;4.00;;;;;;;34.49;37.88;98175.25;5006727;28;20032;-76
2021/08/11 09:13:15;;;;;;;7.93;4.32;;;;;;;36.04;35.20;98180.94;5008454;28;20036;-77
2021/08/11 09:15:42;;;;;;;7.65;3.78;;;;;;;36.28;34.38;98177.25;5010556;28;20030;-76
2021/08/11 09:18:15;;;;;;;8.23;3.72;;;;;;;35.79;35.52;98182.59;5012107;28;20037;-76
2021/08/11 09:21:09;;;;;;;5.05;3.33;;;;;;;34.21;38.29;98165.50;5013157;28;20037;-76
2021/08/11 09:23:41;;;;;;;7.15;4.20;;;;;;;35.30;36.58;98165.09;5004493;28;20041;-78
2021/08/11 09:26:11;;;;;;;5.40;3.72;;;;;;;36.20;35.24;98177.97;5013485;28;20030;-78
2021/08/11 09:28:39;;;;;;;7.60;3.50;;;;;;;37.91;32.58;98173.75;5012765;28;20038;-76
2021/08/11 09:31:30;;;;;;;10.05;5.15;;;;;;;35.44;35.98;98172.38;5012662;28;20022;-75
2021/08/11 09:34:01;;;;;;;9.60;4.03;;;;;;;36.92;34.21;98178.53;5010746;28;20486;-78
2021/08/11 09:36:39;;;;;;;8.23;3.40;;;;;;;36.98;33.62;98175.88;5011906;28;20064;-79
2021/08/11 09:39:05;;;;;;;5.63;3.65;;;;;;;35.62;35.99;98171.81;5011694;28;20026;-77
2021/08/11 09:41:34;;;;;;;5.00;3.22;;;;;;;34.32;38.49;98166.78;5012170;28;20041;-77
2021/08/11 09:44:11;;;;;;;4.22;3.75;;;;;;;35.35;36.46;98163.72;5011340;28;20036;-77
2021/08/11 09:46:41;;;;;;;9.55;3.58;;;;;;;35.15;36.90;98157.47;5012377;28;20470;-75
2021/08/11 09:49:17;;;;;;;7.88;3.65;;;;;;;34.54;37.94;98166.97;5009921;28;20033;-79
2021/08/11 09:51:57;;;;;;;6.97;3.70;;;;;;;34.86;37.63;98161.16;5010711;28;20014;-75
2021/08/11 09:54:23;;;;;;;6.40;3.88;;;;;;;34.90;38.03;98159.00;5011234;28;20019;-75
2021/08/11 09:56:49;;;;;;;8.77;4.20;;;;;;;35.17;37.06;98160.66;5016149;28;20018;-75
2021/08/11 09:59:14;;;;;;;5.07;3.65;;;;;;;35.09;37.83;98151.53;5011769;28;20803;-77
2021/08/11 10:01:40;;;;;;;7.38;3.33;;;;;;;34.09;39.18;98152.78;5010763;28;20037;-79
2021/08/11 10:04:12;;;;;;;4.00;3.35;;;;;;;34.38;39.02;98152.81;5015097;28;20061;-78
2021/08/11 10:06:40;;;;;;;4.28;3.63;;;;;;;34.56;38.93;98150.25;5019560;28;20486;-73
2021/08/11 10:09:26;;;;;;;5.95;4.07;;;;;;;34.59;38.29;98157.88;5018316;28;20390;-76
2021/08/11 10:11:51;;;;;;;4.43;3.15;;;;;;;34.43;38.42;98143.72;5018971;28;20101;-74
2021/08/11 10:14:38;;;;;;;4.50;3.90;;;;;;;34.90;37.81;98139.09;5013383;28;20113;-75
2021/08/11 10:17:04;;;;;;;4.97;3.53;;;;;;;35.58;36.24;98148.34;5008681;28;20045;-74
2021/08/11 10:19:32;;;;;;;4.13;3.15;;;;;;;36.15;35.27;98142.28;5010014;28;20375;-75
2021/08/11 10:22:11;;;;;;;7.10;3.83;;;;;;;37.30;32.82;98135.47;5010090;28;20136;-73
2021/08/11 10:24:38;;;;;;;4.72;3.53;;;;;;;36.37;34.18;98140.25;5021353;28;20044;-76
2021/08/11 10:27:08;;;;;;;7.82;3.47;;;;;;;33.46;39.29;98128.91;5018030;28;20354;-76
2021/08/11 10:29:36;;;;;;;9.55;4.07;;;;;;;33.82;39.45;98121.88;5016203;28;20021;-76
2021/08/11 10:32:02;;;;;;;4.35;3.00;;;;;;;33.75;38.29;98124.91;5012447;28;20080;-79
2021/08/11 10:34:31;;;;;;;6.15;3.70;;;;;;;33.00;38.82;98127.94;5023227;28;20770;-74
2021/08/11 10:37:00;;;;;;;6.20;2.92;;;;;;;32.46;40.74;98121.00;5018766;28;20550;-74
2021/08/11 10:39:30;;;;;;;7.43;3.50;;;;;;;31.20;44.74;98120.09;5021862;28;20034;-75
2021/08/11 10:42:00;;;;;;;7.63;3.67;;;;;;;31.97;43.51;98117.13;5016690;28;20438;-74
2021/08/11 10:44:26;;;;;;;8.27;4.07;;;;;;;32.16;43.25;98110.72;5011937;28;20135;-75
2021/08/11 10:46:56;;;;;;;3.40;2.97;;;;;;;32.76;39.85;98104.59;5019952;28;20895;-76
2021/08/11 10:49:24;;;;;;;5.05;3.00;;;;;;;32.85;38.92;98101.97;5013777;28;20021;-78
2021/08/11 10:51:50;;;;;;;6.68;3.20;;;;;;;31.87;42.45;98101.16;5008797;28;20037;-73
2021/08/11 10:54:18;;;;;;;4.47;3.17;;;;;;;31.70;42.59;98097.44;5009451;28;20044;-75
2021/08/11 10:56:44;;;;;;;3.60;3.20;;;;;;;31.73;42.85;98102.22;5013519;28;20749;-73
2021/08/11 10:59:22;;;;;;;3.42;2.58;;;;;;;30.92;43.30;98089.41;5014260;28;20037;-73
2021/08/11 11:01:52;;;;;;;4.40;3.78;;;;;;;30.81;43.16;98098.03;5007531;28;20490;-78
2021/08/11 11:04:37;;;;;;;4.88;3.25;;;;;;;30.57;44.36;98085.88;5008217;28;20032;-75
2021/08/11 11:07:08;;;;;;;5.88;3.80;;;;;;;30.92;44.10;98086.59;5009308;28;20051;-72
2021/08/11 11:09:35;;;;;;;4.85;3.13;;;;;;;31.33;43.99;98089.97;5009342;28;20084;-76
2021/08/11 11:12:30;;;;;;;7.30;3.60;;;;;;;30.88;44.50;98091.50;5009318;28;20121;-78
2021/08/11 11:14:56;;;;;;;4.97;3.13;;;;;;;29.96;46.46;98087.03;4986918;28;20100;-78
2021/08/11 11:17:31;;;;;;;3.80;2.72;;;;;;;30.65;45.51;98087.38;5009320;28;20063;-75
2021/08/11 11:20:03;;;;;;;3.00;2.70;;;;;;;30.40;45.63;98089.75;5008426;28;20034;-78
2021/08/11 11:22:57;;;;;;;3.17;2.70;;;;;;;30.24;45.47;98086.69;5009485;28;20021;-75
2021/08/11 11:26:00;;;;;;;9.45;3.88;;;;;;;29.98;46.17;98067.69;5011277;28;20034;-78
2021/08/11 11:28:56;;;;;;;6.88;2.80;;;;;;;30.10;46.18;98064.31;5012973;28;20112;-74
2021/08/11 11:31:51;;;;;;;3.55;2.78;;;;;;;29.74;46.03;98056.22;5007317;28;20103;-78
2021/08/11 11:34:33;;;;;;;4.57;3.10;;;;;;;29.54;47.31;98058.03;5007827;28;20040;-77